createdAt,value
2018-11-02T00:01:27.485Z,8.6
2018-11-02T00:06:56.243Z,8.5
2018-11-02T00:12:24.830Z,8.5
2018-11-02T00:17:52.727Z,8.5
2018-11-02T00:23:20.364Z,8.5
2018-11-02T00:28:49.432Z,8.5
2018-11-02T00:34:18.557Z,8.5
2018-11-02T00:39:45.779Z,8.5
2018-11-02T00:45:14.920Z,8.5
2018-11-02T00:50:42.428Z,8.5
2018-11-02T00:56:10.246Z,8.5
2018-11-02T01:01:39.074Z,8.5
2018-11-02T01:07:11.862Z,8.5
2018-11-02T01:12:39.940Z,8.4
2018-11-02T01:18:02.571Z,8.4
2018-11-02T01:23:30.318Z,8.5
2018-11-02T01:28:59.109Z,8.5
2018-11-02T01:34:27.963Z,8.5
2018-11-02T01:39:57.296Z,8.5
2018-11-02T01:45:24.602Z,8.5
2018-11-02T01:50:52.664Z,8.5
2018-11-02T01:56:26.245Z,8.6
2018-11-02T02:01:50.305Z,8.6
2018-11-02T02:07:23.882Z,8.6
2018-11-02T02:12:46.941Z,8.6
2018-11-02T02:18:14.478Z,8.5
2018-11-02T02:23:43.324Z,8.5
2018-11-02T02:29:17.413Z,8.5
2018-11-02T02:34:40.918Z,8.5
2018-11-02T02:40:09.754Z,8.4
2018-11-02T02:45:38.539Z,8.4
2018-11-02T02:51:07.612Z,8.4
2018-11-02T02:56:36.460Z,8.4
2018-11-02T03:02:04.193Z,8.4
2018-11-02T03:07:36.772Z,8.5
2018-11-02T03:13:04.574Z,8.5
2018-11-02T03:18:27.425Z,8.5
2018-11-02T03:23:55.181Z,8.5
2018-11-02T03:29:23.974Z,8.5
2018-11-02T03:34:51.816Z,8.6
2018-11-02T03:40:19.643Z,8.6
2018-11-02T03:45:47.716Z,8.6
2018-11-02T03:51:16.293Z,8.6
2018-11-02T03:56:50.660Z,8.6
2018-11-02T04:02:13.906Z,8.6
2018-11-02T04:07:42.029Z,8.6
2018-11-02T04:13:10.613Z,8.6
2018-11-02T04:18:43.445Z,8.6
2018-11-02T04:24:07.418Z,8.6
2018-11-02T04:29:36.128Z,8.6
2018-11-02T04:35:03.832Z,8.6
2018-11-02T04:40:32.660Z,8.6
2018-11-02T04:46:06.490Z,8.6
2018-11-02T04:51:30.340Z,8.6
2018-11-02T04:57:04.174Z,8.7
2018-11-02T05:02:27.982Z,8.7
2018-11-02T05:07:55.832Z,8.7
2018-11-02T05:13:29.932Z,8.7
2018-11-02T05:18:52.439Z,8.7
2018-11-02T05:24:21.786Z,8.8
2018-11-02T05:29:49.156Z,8.8
2018-11-02T05:35:16.962Z,8.8
2018-11-02T05:40:45.838Z,8.8
2018-11-02T05:46:19.658Z,8.9
2018-11-02T05:51:47.868Z,8.9
2018-11-02T05:57:11.374Z,8.9
2018-11-02T06:02:39.278Z,9
2018-11-02T06:08:07.671Z,9
2018-11-02T06:13:36.131Z,9
2018-11-02T06:19:05.045Z,9
2018-11-02T06:24:33.699Z,9
2018-11-02T06:30:02.556Z,9
2018-11-02T06:35:30.444Z,9.1
2018-11-02T06:40:59.308Z,9.1
2018-11-02T06:46:28.391Z,9.1
2018-11-02T06:52:01.107Z,9.1
2018-11-02T06:57:28.968Z,9.1
2018-11-02T07:02:57.760Z,9.1
2018-11-02T07:08:20.770Z,9.1
2018-11-02T07:13:48.553Z,9.2
2018-11-02T07:19:16.341Z,9.2
2018-11-02T07:24:44.525Z,9.2
2018-11-02T07:30:17.261Z,9.2
2018-11-02T07:35:40.973Z,9.2
2018-11-02T07:41:14.907Z,9.3
2018-11-02T07:46:43.852Z,9.3
2018-11-02T07:52:06.642Z,9.3
2018-11-02T07:57:39.585Z,9.3
2018-11-02T08:03:03.464Z,9.4
2018-11-02T08:08:32.328Z,9.4
2018-11-02T08:14:05.406Z,9.4
2018-11-02T08:19:29.103Z,9.4
2018-11-02T08:24:57.955Z,9.4
2018-11-02T08:30:26.877Z,9.4
2018-11-02T08:35:54.816Z,9.4
2018-11-02T08:41:22.693Z,9.4
2018-11-02T08:46:51.562Z,9.4
2018-11-02T08:52:20.594Z,9.5
2018-11-02T08:57:49.462Z,9.5
2018-11-02T09:03:18.304Z,9.7
2018-11-02T09:08:46.172Z,9.7
2018-11-02T09:14:14.119Z,9.9
2018-11-02T09:19:42.052Z,10.1
2018-11-02T09:25:10.068Z,10.3
2018-11-02T09:30:38.044Z,10.5
2018-11-02T09:36:07.058Z,10.6
2018-11-02T09:41:36.024Z,10.6
2018-11-02T09:47:05.013Z,10.5
2018-11-02T09:52:34.019Z,10.4
2018-11-02T09:58:07.058Z,10.4
2018-11-02T10:03:31.027Z,10.5
2018-11-02T10:09:04.064Z,10.6
2018-11-02T10:14:28.063Z,10.6
2018-11-02T10:19:57.006Z,10.6
2018-11-02T10:25:26.094Z,10.6
2018-11-02T10:30:59.024Z,10.7
2018-11-02T10:36:23.019Z,10.8
2018-11-02T10:41:52.078Z,10.9
2018-11-02T10:47:21.116Z,11
2018-11-02T10:52:50.154Z,11.1
2018-11-02T10:58:24.230Z,11.2
2018-11-02T11:03:48.269Z,11.3
2018-11-02T11:09:21.313Z,11.3
2018-11-02T11:14:50.423Z,11.2
2018-11-02T11:20:14.399Z,11.2
2018-11-02T11:25:43.432Z,11.2
2018-11-02T11:31:16.515Z,11.2
2018-11-02T11:36:40.644Z,11.2
2018-11-02T11:42:09.623Z,11.2
2018-11-02T11:47:37.655Z,11.2
2018-11-02T11:53:06.722Z,11.2
2018-11-02T11:58:34.838Z,11.1
2018-11-02T12:04:02.773Z,11.1
2018-11-02T12:09:30.865Z,11
2018-11-02T12:15:04.005Z,10.9
2018-11-02T12:20:26.872Z,10.9
2018-11-02T12:25:54.993Z,11.2
2018-11-02T12:31:22.994Z,11.4
2018-11-02T12:36:52.103Z,11.4
2018-11-02T12:42:21.105Z,11.3
2018-11-02T12:47:49.219Z,11
2018-11-02T12:53:17.449Z,10.9
2018-11-02T12:58:45.159Z,10.7
2018-11-02T13:04:13.241Z,10.7
2018-11-02T13:09:46.143Z,10.6
2018-11-02T13:15:10.607Z,10.6
2018-11-02T13:20:38.121Z,10.4
2018-11-02T13:26:06.560Z,10.3
2018-11-02T13:31:40.438Z,10.3
2018-11-02T13:37:03.171Z,10.4
2018-11-02T13:42:31.025Z,10.3
2018-11-02T13:47:58.947Z,10.2
2018-11-02T13:53:28.185Z,10.1
2018-11-02T13:58:56.170Z,10
2018-11-02T14:04:23.869Z,9.9
2018-11-02T14:09:51.720Z,9.8
2018-11-02T14:15:20.674Z,9.8
2018-11-02T14:20:53.611Z,9.8
2018-11-02T14:26:16.651Z,9.7
2018-11-02T14:31:49.682Z,9.7
2018-11-02T14:37:13.411Z,9.7
2018-11-02T14:42:42.239Z,9.7
2018-11-02T14:48:10.168Z,9.7
2018-11-02T14:53:39.134Z,9.7
2018-11-02T14:59:12.275Z,9.6
2018-11-02T15:04:35.892Z,9.6
2018-11-02T15:10:03.822Z,9.6
2018-11-02T15:15:37.739Z,9.6
2018-11-02T15:21:00.874Z,9.5
2018-11-02T15:26:33.647Z,9.5
2018-11-02T15:31:57.480Z,9.4
2018-11-02T15:37:26.637Z,9.3
2018-11-02T15:42:54.254Z,9.3
2018-11-02T15:48:28.412Z,9.2
2018-11-02T15:53:51.007Z,9.2
2018-11-02T15:59:24.185Z,9.1
2018-11-02T16:04:46.878Z,9
2018-11-02T16:04:47.312Z,9
2018-11-02T16:10:19.595Z,8.9
2018-11-02T16:15:42.713Z,8.8
2018-11-02T16:21:17.068Z,8.7
2018-11-02T16:26:40.373Z,8.6
2018-11-02T16:32:08.914Z,8.5
2018-11-02T16:37:36.737Z,8.4
2018-11-02T16:43:05.779Z,8.3
2018-11-02T16:48:33.325Z,8.2
2018-11-02T16:54:06.118Z,8.1
2018-11-02T16:59:28.956Z,8.1
2018-11-02T17:05:02.066Z,8
2018-11-02T17:10:29.570Z,8
2018-11-02T17:15:52.169Z,8.1
2018-11-02T17:21:19.942Z,8.1
2018-11-02T17:26:47.840Z,8.2
2018-11-02T17:32:16.517Z,8.2
2018-11-02T17:37:44.337Z,8.2
2018-11-02T17:43:13.102Z,8.1
2018-11-02T17:48:41.503Z,8.1
2018-11-02T17:54:08.885Z,8
2018-11-02T17:59:36.523Z,7.9
2018-11-02T18:05:09.173Z,7.8
2018-11-02T18:10:31.921Z,7.7
2018-11-02T18:16:01.096Z,7.6
2018-11-02T18:21:29.718Z,7.6
2018-11-02T18:26:57.910Z,7.5
2018-11-02T18:32:25.432Z,7.4
2018-11-02T18:37:52.546Z,7.4
2018-11-02T18:43:25.387Z,7.3
2018-11-02T18:48:53.273Z,7.2
2018-11-02T18:54:15.965Z,7.2
2018-11-02T18:59:43.713Z,7.3
2018-11-02T19:05:16.392Z,7.3
2018-11-02T19:10:44.825Z,7.3
2018-11-02T19:16:13.809Z,7.3
2018-11-02T19:21:37.497Z,7.4
2018-11-02T19:27:06.124Z,7.3
2018-11-02T19:32:34.049Z,7.3
2018-11-02T19:38:01.544Z,7.2
2018-11-02T19:43:29.178Z,7.1
2018-11-02T19:48:56.877Z,7
2018-11-02T19:54:24.457Z,6.9
2018-11-02T19:59:53.157Z,6.8
2018-11-02T20:05:20.777Z,6.7
2018-11-02T20:10:48.515Z,6.6
2018-11-02T20:16:17.137Z,6.6
2018-11-02T20:21:45.777Z,6.5
2018-11-02T20:27:14.644Z,6.4
2018-11-02T20:32:42.485Z,6.3
2018-11-02T20:38:09.722Z,6.2
2018-11-02T20:43:42.302Z,6.2
2018-11-02T20:49:09.892Z,6.1
2018-11-02T20:54:33.775Z,6
2018-11-02T21:00:02.354Z,6
2018-11-02T21:05:31.010Z,5.9
2018-11-02T21:10:58.302Z,5.8
2018-11-02T21:16:26.982Z,5.7
2018-11-02T21:21:54.786Z,5.6
2018-11-02T21:27:22.056Z,5.6
2018-11-02T21:32:50.901Z,5.5
2018-11-02T21:38:19.279Z,5.4
2018-11-02T21:43:51.837Z,5.4
2018-11-02T21:49:15.362Z,5.3
2018-11-02T21:54:42.902Z,5.3
2018-11-02T22:00:10.437Z,5.3
2018-11-02T22:05:38.025Z,5.2
2018-11-02T22:11:05.526Z,5.2
2018-11-02T22:16:34.029Z,5.1
2018-11-02T22:22:07.634Z,5.1
2018-11-02T22:27:36.107Z,5
2018-11-02T22:32:59.118Z,5
2018-11-02T22:38:27.180Z,5
2018-11-02T22:43:55.941Z,5
2018-11-02T22:49:24.248Z,5
2018-11-02T22:54:52.027Z,5
2018-11-02T23:00:20.368Z,4.9
2018-11-02T23:05:47.938Z,4.8
2018-11-02T23:11:15.303Z,4.8
2018-11-02T23:16:43.339Z,4.7
2018-11-02T23:22:11.325Z,4.7
2018-11-02T23:27:40.111Z,4.7
2018-11-02T23:33:07.576Z,4.7
2018-11-02T23:38:34.911Z,4.7
2018-11-02T23:44:07.377Z,4.7
2018-11-02T23:49:30.173Z,4.7
2018-11-02T23:54:57.359Z,4.7
